createdAt,value
2023-08-08T00:01:07.924Z,14.40
2023-08-08T00:03:36.876Z,14.40
2023-08-08T00:06:05.426Z,14.30
2023-08-08T00:08:33.996Z,14.30
2023-08-08T00:11:02.509Z,14.30
2023-08-08T00:13:32.421Z,14.20
2023-08-08T00:16:01.072Z,14.20
2023-08-08T00:18:29.691Z,14.20
2023-08-08T00:20:58.349Z,14.20
2023-08-08T00:23:26.872Z,14.20
2023-08-08T00:25:55.452Z,14.10
2023-08-08T00:28:23.935Z,14.10
2023-08-08T00:30:53.942Z,14.10
2023-08-08T00:33:22.500Z,14.10
2023-08-08T00:35:51.051Z,14.00
2023-08-08T00:38:19.844Z,14.00
2023-08-08T00:40:48.457Z,14.00
2023-08-08T00:43:17.015Z,14.00
2023-08-08T00:45:46.805Z,13.90
2023-08-08T00:48:16.797Z,13.90
2023-08-08T00:50:46.458Z,13.90
2023-08-08T00:53:15.099Z,13.90
2023-08-08T00:55:45.001Z,13.80
2023-08-08T00:58:14.451Z,13.80
2023-08-08T01:00:43.339Z,13.80
2023-08-08T01:03:12.006Z,13.80
2023-08-08T01:05:46.718Z,13.80
2023-08-08T01:08:21.778Z,13.80
2023-08-08T01:10:51.247Z,13.80
2023-08-08T01:13:24.088Z,13.80
2023-08-08T01:15:55.375Z,13.70
2023-08-08T01:18:24.797Z,13.70
2023-08-08T01:20:56.544Z,13.70
2023-08-08T01:23:32.440Z,13.70
2023-08-08T01:26:03.671Z,13.70
2023-08-08T01:28:32.487Z,13.80
2023-08-08T01:31:00.990Z,13.80
2023-08-08T01:33:29.705Z,13.80
2023-08-08T01:36:02.885Z,13.80
2023-08-08T01:38:34.041Z,13.90
2023-08-08T01:41:06.607Z,13.90
2023-08-08T01:43:35.895Z,13.90
2023-08-08T01:46:06.099Z,13.90
2023-08-08T01:48:35.158Z,13.90
2023-08-08T01:51:05.138Z,13.90
2023-08-08T01:53:34.141Z,13.90
2023-08-08T01:56:04.801Z,13.80
2023-08-08T01:58:33.371Z,13.80
2023-08-08T02:01:01.938Z,13.90
2023-08-08T02:03:30.496Z,13.80
2023-08-08T02:05:59.180Z,13.80
2023-08-08T02:08:27.878Z,13.80
2023-08-08T02:10:56.496Z,13.80
2023-08-08T02:13:26.396Z,13.80
2023-08-08T02:15:55.071Z,13.80
2023-08-08T02:18:23.802Z,13.80
2023-08-08T02:20:52.376Z,13.70
2023-08-08T02:23:20.911Z,13.70
2023-08-08T02:25:49.501Z,13.70
2023-08-08T02:28:18.328Z,13.70
2023-08-08T02:30:48.250Z,13.70
2023-08-08T02:33:16.839Z,13.70
2023-08-08T02:35:45.741Z,13.70
2023-08-08T02:38:14.373Z,13.60
2023-08-08T02:40:43.070Z,13.60
2023-08-08T02:43:13.591Z,13.60
2023-08-08T02:45:42.254Z,13.60
2023-08-08T02:48:12.850Z,13.50
2023-08-08T02:50:41.644Z,13.50
2023-08-08T02:53:10.412Z,13.50
2023-08-08T02:55:44.439Z,13.50
2023-08-08T02:58:13.188Z,13.40
2023-08-08T03:00:41.972Z,13.40
2023-08-08T03:03:16.224Z,13.40
2023-08-08T03:05:47.714Z,13.40
2023-08-08T03:08:19.277Z,13.40
2023-08-08T03:10:47.860Z,13.40
2023-08-08T03:13:16.445Z,13.40
2023-08-08T03:15:45.092Z,13.40
2023-08-08T03:18:15.627Z,13.40
2023-08-08T03:20:44.419Z,13.40
2023-08-08T03:23:13.782Z,13.40
2023-08-08T03:25:43.137Z,13.50
2023-08-08T03:28:11.944Z,13.50
2023-08-08T03:30:40.929Z,13.40
2023-08-08T03:33:11.463Z,13.40
2023-08-08T03:35:41.978Z,13.40
2023-08-08T03:38:11.806Z,13.50
2023-08-08T03:40:40.439Z,13.50
2023-08-08T03:43:10.005Z,13.50
2023-08-08T03:45:38.793Z,13.50
2023-08-08T03:48:08.285Z,13.40
2023-08-08T03:50:36.962Z,13.50
2023-08-08T03:53:07.089Z,13.50
2023-08-08T03:55:35.753Z,13.50
2023-08-08T03:58:06.874Z,13.50
2023-08-08T04:00:36.378Z,13.50
2023-08-08T04:03:05.500Z,13.50
2023-08-08T04:05:34.177Z,13.40
2023-08-08T04:08:07.663Z,13.50
2023-08-08T04:10:36.304Z,13.40
2023-08-08T04:13:05.098Z,13.40
2023-08-08T04:15:33.661Z,13.40
2023-08-08T04:18:02.651Z,13.40
2023-08-08T04:20:31.221Z,13.40
2023-08-08T04:22:59.792Z,13.40
2023-08-08T04:25:30.271Z,13.40
2023-08-08T04:27:59.049Z,13.40
2023-08-08T04:30:27.660Z,13.40
2023-08-08T04:32:56.352Z,13.40
2023-08-08T04:35:25.006Z,13.40
2023-08-08T04:37:53.606Z,13.40
2023-08-08T04:40:22.232Z,13.40
2023-08-08T04:42:53.030Z,13.40
2023-08-08T04:45:22.150Z,13.40
2023-08-08T04:47:50.903Z,13.50
2023-08-08T04:50:19.856Z,13.50
2023-08-08T04:52:48.521Z,13.50
2023-08-08T04:55:17.290Z,13.50
2023-08-08T04:57:45.879Z,13.60
2023-08-08T05:00:16.525Z,13.60
2023-08-08T05:02:45.208Z,13.60
2023-08-08T05:05:13.850Z,13.60
2023-08-08T05:07:42.410Z,13.60
2023-08-08T05:10:11.427Z,13.60
2023-08-08T05:12:40.324Z,13.70
2023-08-08T05:15:09.740Z,13.70
2023-08-08T05:17:39.700Z,13.70
2023-08-08T05:20:10.456Z,13.80
2023-08-08T05:22:39.053Z,13.80
2023-08-08T05:25:08.176Z,13.80
2023-08-08T05:27:36.847Z,13.80
2023-08-08T05:30:06.485Z,13.90
2023-08-08T05:32:35.134Z,13.90
2023-08-08T05:35:06.057Z,13.90
2023-08-08T05:37:34.668Z,13.90
2023-08-08T05:40:04.312Z,14.00
2023-08-08T05:42:33.054Z,14.00
2023-08-08T05:45:01.850Z,14.10
2023-08-08T05:47:30.654Z,14.20
2023-08-08T05:49:59.251Z,14.30
2023-08-08T05:52:29.303Z,14.40
2023-08-08T05:55:00.239Z,14.50
2023-08-08T05:57:28.886Z,14.60
2023-08-08T05:59:57.783Z,14.80
2023-08-08T06:02:26.805Z,14.80
2023-08-08T06:04:55.417Z,15.00
2023-08-08T06:07:24.004Z,15.10
2023-08-08T06:09:53.966Z,15.30
2023-08-08T06:12:22.537Z,15.40
2023-08-08T06:14:51.084Z,15.50
2023-08-08T06:17:19.595Z,15.60
2023-08-08T06:19:48.232Z,15.60
2023-08-08T06:22:16.756Z,15.80
2023-08-08T06:24:45.801Z,15.80
2023-08-08T06:27:16.737Z,15.90
2023-08-08T06:29:46.490Z,15.90
2023-08-08T06:32:15.039Z,16.00
2023-08-08T06:34:43.590Z,16.00
2023-08-08T06:37:12.392Z,15.90
2023-08-08T06:39:41.309Z,16.00
2023-08-08T06:42:10.578Z,16.10
2023-08-08T06:44:51.350Z,16.10
2023-08-08T06:47:19.923Z,16.20
2023-08-08T06:49:48.576Z,16.00
2023-08-08T06:52:17.111Z,16.00
2023-08-08T06:54:45.683Z,16.00
2023-08-08T06:57:14.200Z,16.00
2023-08-08T06:59:43.051Z,16.10
2023-08-08T07:02:13.015Z,16.20
2023-08-08T07:04:41.633Z,16.30
2023-08-08T07:07:10.241Z,16.40
2023-08-08T07:09:39.997Z,16.40
2023-08-08T07:12:09.568Z,16.40
2023-08-08T07:14:38.198Z,16.40
2023-08-08T07:17:07.045Z,16.40
2023-08-08T07:19:38.425Z,16.50
2023-08-08T07:22:07.073Z,16.60
2023-08-08T07:24:35.570Z,16.60
2023-08-08T07:27:04.397Z,16.70
2023-08-08T07:29:32.943Z,16.80
2023-08-08T07:32:05.481Z,16.90
2023-08-08T07:34:34.294Z,17.00
2023-08-08T07:37:05.134Z,17.10
2023-08-08T07:39:33.823Z,17.20
2023-08-08T07:42:02.736Z,17.20
2023-08-08T07:44:32.902Z,17.30
2023-08-08T07:47:01.639Z,17.30
2023-08-08T07:49:30.362Z,17.40
2023-08-08T07:51:59.192Z,17.40
2023-08-08T07:54:29.362Z,17.50
2023-08-08T07:56:57.872Z,17.50
2023-08-08T07:59:26.595Z,17.60
2023-08-08T08:01:55.180Z,17.70
2023-08-08T08:04:23.863Z,17.70
2023-08-08T08:06:52.835Z,17.80
2023-08-08T08:09:21.447Z,17.80
2023-08-08T08:11:51.446Z,17.80
2023-08-08T08:14:21.734Z,17.90
2023-08-08T08:16:50.454Z,17.90
2023-08-08T08:19:19.315Z,17.90
2023-08-08T08:21:48.231Z,17.90
2023-08-08T08:24:18.356Z,17.90
2023-08-08T08:26:47.869Z,17.90
2023-08-08T08:29:17.873Z,17.90
2023-08-08T08:31:46.590Z,17.90
2023-08-08T08:34:15.157Z,17.90
2023-08-08T08:36:43.749Z,18.00
2023-08-08T08:39:12.403Z,18.00
2023-08-08T08:41:40.986Z,18.10
2023-08-08T08:44:10.055Z,18.10
2023-08-08T08:46:41.252Z,18.10
2023-08-08T08:49:11.442Z,18.20
2023-08-08T08:51:41.063Z,18.20
2023-08-08T08:54:09.740Z,18.20
2023-08-08T08:56:38.442Z,18.20
2023-08-08T08:59:07.740Z,18.10
2023-08-08T09:01:36.742Z,18.10
2023-08-08T09:04:09.903Z,18.00
2023-08-08T09:06:39.820Z,18.10
2023-08-08T09:09:16.284Z,18.10
2023-08-08T09:11:47.552Z,18.10
2023-08-08T09:14:20.288Z,18.20
2023-08-08T09:16:49.601Z,18.30
2023-08-08T09:19:19.829Z,18.40
2023-08-08T09:21:48.727Z,18.50
2023-08-08T09:24:17.613Z,18.50
2023-08-08T09:26:47.152Z,18.50
2023-08-08T09:29:16.801Z,18.70
2023-08-08T09:31:48.144Z,18.80
2023-08-08T09:34:16.791Z,18.80
2023-08-08T09:36:46.772Z,18.90
2023-08-08T09:39:15.599Z,19.00
2023-08-08T09:41:44.191Z,19.00
2023-08-08T09:44:12.793Z,19.10
2023-08-08T09:46:41.761Z,19.10
2023-08-08T09:49:13.108Z,19.10
2023-08-08T09:51:42.265Z,19.10
2023-08-08T09:54:13.106Z,19.10
2023-08-08T09:56:42.572Z,19.10
2023-08-08T09:59:12.369Z,19.10
2023-08-08T10:01:43.224Z,19.10
2023-08-08T10:04:14.992Z,19.10
2023-08-08T10:06:43.784Z,19.10
2023-08-08T10:09:14.564Z,19.10
2023-08-08T10:11:45.261Z,19.10
2023-08-08T10:14:15.424Z,19.20
2023-08-08T10:16:47.070Z,19.20
2023-08-08T10:19:16.154Z,19.20
2023-08-08T10:21:46.428Z,19.20
2023-08-08T10:24:22.964Z,19.20
2023-08-08T10:26:55.566Z,19.20
2023-08-08T10:29:27.444Z,19.20
2023-08-08T10:32:00.424Z,19.20
2023-08-08T10:34:40.620Z,19.30
2023-08-08T10:37:13.329Z,19.20
2023-08-08T10:39:53.607Z,19.20
2023-08-08T10:42:24.371Z,19.20
2023-08-08T10:44:54.824Z,19.30
2023-08-08T10:47:25.461Z,19.20
2023-08-08T10:50:07.690Z,19.20
2023-08-08T10:52:40.816Z,19.20
2023-08-08T10:55:21.065Z,19.30
2023-08-08T10:57:57.291Z,19.20
2023-08-08T11:00:28.560Z,19.20
2023-08-08T11:02:57.685Z,19.30
2023-08-08T11:05:29.950Z,19.30
2023-08-08T11:07:59.144Z,19.40
2023-08-08T11:10:32.122Z,19.40
2023-08-08T11:13:04.208Z,19.50
2023-08-08T11:15:35.336Z,19.40
2023-08-08T11:18:05.418Z,19.50
2023-08-08T11:20:35.574Z,19.60
2023-08-08T11:23:06.728Z,19.60
2023-08-08T11:25:36.711Z,19.50
2023-08-08T11:28:05.603Z,19.50
2023-08-08T11:30:40.604Z,19.40
2023-08-08T11:35:46.649Z,19.30
2023-08-08T11:38:16.043Z,19.20
2023-08-08T11:40:46.413Z,19.10
2023-08-08T11:43:15.856Z,19.10
2023-08-08T11:45:45.180Z,19.10
2023-08-08T11:48:14.800Z,19.20
2023-08-08T11:50:45.544Z,19.30
2023-08-08T11:53:14.141Z,19.40
2023-08-08T11:55:43.999Z,19.60
2023-08-08T11:58:16.659Z,19.60
2023-08-08T12:00:47.265Z,19.60
2023-08-08T12:03:19.181Z,19.60
2023-08-08T12:05:48.390Z,19.60
2023-08-08T12:08:19.855Z,19.50
2023-08-08T12:10:53.986Z,19.50
2023-08-08T12:13:26.944Z,19.50
2023-08-08T12:15:56.646Z,19.40
2023-08-08T12:18:25.501Z,19.40
2023-08-08T12:20:54.031Z,19.30
2023-08-08T12:23:22.577Z,19.30
2023-08-08T12:25:51.795Z,19.20
2023-08-08T12:28:20.304Z,19.20
2023-08-08T12:30:50.369Z,19.20
2023-08-08T12:33:18.987Z,19.20
2023-08-08T12:35:47.939Z,19.20
2023-08-08T12:38:16.557Z,19.30
2023-08-08T12:40:45.279Z,19.40
2023-08-08T12:43:18.529Z,19.40
2023-08-08T12:45:48.752Z,19.30
2023-08-08T12:48:18.651Z,19.30
2023-08-08T12:50:47.207Z,19.20
2023-08-08T12:53:15.748Z,19.20
2023-08-08T12:55:45.037Z,19.10
2023-08-08T12:58:13.876Z,19.10
2023-08-08T13:00:42.523Z,19.00
2023-08-08T13:03:13.429Z,18.90
2023-08-08T13:05:43.822Z,18.80
2023-08-08T13:08:14.521Z,18.80
2023-08-08T13:10:43.171Z,18.70
2023-08-08T13:13:11.880Z,18.60
2023-08-08T13:15:40.458Z,18.60
2023-08-08T13:18:09.503Z,18.60
2023-08-08T13:20:38.159Z,18.60
2023-08-08T13:23:08.257Z,18.50
2023-08-08T13:25:36.928Z,18.50
2023-08-08T13:28:05.896Z,18.50
2023-08-08T13:30:35.213Z,18.50
2023-08-08T13:33:04.538Z,18.50
2023-08-08T13:35:33.176Z,18.60
2023-08-08T13:38:02.334Z,18.50
2023-08-08T13:40:32.372Z,18.60
2023-08-08T13:43:01.054Z,18.60
2023-08-08T13:45:29.695Z,18.70
2023-08-08T13:47:58.439Z,18.70
2023-08-08T13:50:27.194Z,18.80
2023-08-08T13:52:56.670Z,18.70
2023-08-08T13:55:26.744Z,18.70
2023-08-08T13:57:56.891Z,18.60
2023-08-08T14:00:26.039Z,18.60
2023-08-08T14:02:55.785Z,18.50
2023-08-08T14:05:25.419Z,18.50
2023-08-08T14:07:53.958Z,18.50
2023-08-08T14:10:22.578Z,18.50
2023-08-08T14:12:51.139Z,18.50
2023-08-08T14:15:21.191Z,18.60
2023-08-08T14:17:49.816Z,18.60
2023-08-08T14:20:18.489Z,18.80
2023-08-08T14:22:47.645Z,18.90
2023-08-08T14:25:16.658Z,19.00
2023-08-08T14:27:45.296Z,19.00
2023-08-08T14:30:13.862Z,19.00
2023-08-08T14:32:45.727Z,19.00
2023-08-08T14:35:14.372Z,19.00
2023-08-08T14:37:42.967Z,18.90
2023-08-08T14:40:12.406Z,18.80
2023-08-08T14:42:41.033Z,18.80
2023-08-08T14:45:10.773Z,18.70
2023-08-08T14:47:39.362Z,18.60
2023-08-08T14:50:10.356Z,18.60
2023-08-08T14:52:38.988Z,18.60
2023-08-08T14:55:08.588Z,18.60
2023-08-08T14:57:37.268Z,18.70
2023-08-08T15:00:10.329Z,18.80
2023-08-08T15:02:39.054Z,18.90
2023-08-08T15:05:10.041Z,19.00
2023-08-08T15:07:38.619Z,19.00
2023-08-08T15:10:09.603Z,19.00
2023-08-08T15:12:38.291Z,19.00
2023-08-08T15:15:08.671Z,19.00
2023-08-08T15:17:37.377Z,18.90
2023-08-08T15:20:07.735Z,18.90
2023-08-08T15:22:37.612Z,18.90
2023-08-08T15:25:06.747Z,18.90
2023-08-08T15:27:35.240Z,18.90
2023-08-08T15:30:04.898Z,18.90
2023-08-08T15:32:33.618Z,18.90
2023-08-08T15:35:02.220Z,18.90
2023-08-08T15:37:30.821Z,18.90
2023-08-08T15:40:00.692Z,19.10
2023-08-08T15:42:29.332Z,19.20
2023-08-08T15:44:57.924Z,19.30
2023-08-08T15:47:29.081Z,19.40
2023-08-08T15:49:57.692Z,19.40
2023-08-08T15:52:27.251Z,19.50
2023-08-08T15:54:55.860Z,19.50
2023-08-08T15:57:25.790Z,19.50
2023-08-08T15:59:54.416Z,19.50
2023-08-08T16:02:23.180Z,19.40
2023-08-08T16:04:51.782Z,19.30
2023-08-08T16:07:21.463Z,19.30
2023-08-08T16:09:50.474Z,19.40
2023-08-08T16:12:19.104Z,19.30
2023-08-08T16:14:49.132Z,19.30
2023-08-08T16:17:17.727Z,19.30
2023-08-08T16:19:46.327Z,19.30
2023-08-08T16:22:14.913Z,19.30
2023-08-08T16:24:43.539Z,19.30
2023-08-08T16:27:12.655Z,19.20
2023-08-08T16:29:41.329Z,19.20
2023-08-08T16:32:11.287Z,19.20
2023-08-08T16:34:39.943Z,19.10
2023-08-08T16:37:09.390Z,19.10
2023-08-08T16:39:37.943Z,19.10
2023-08-08T16:42:06.741Z,19.00
2023-08-08T16:44:35.407Z,18.90
2023-08-08T16:47:05.370Z,18.90
2023-08-08T16:49:35.394Z,18.90
2023-08-08T16:52:04.380Z,18.80
2023-08-08T16:54:35.319Z,18.80
2023-08-08T16:57:04.406Z,18.80
2023-08-08T16:59:33.016Z,18.70
2023-08-08T17:02:01.826Z,18.70
2023-08-08T17:04:30.688Z,18.60
2023-08-08T17:07:00.558Z,18.60
2023-08-08T17:09:29.168Z,18.60
2023-08-08T17:11:57.751Z,18.60
2023-08-08T17:14:26.392Z,18.60
2023-08-08T17:16:55.084Z,18.50
2023-08-08T17:19:23.777Z,18.60
2023-08-08T17:21:52.351Z,18.60
2023-08-08T17:24:27.255Z,18.70
2023-08-08T17:27:01.572Z,18.70
2023-08-08T17:29:30.181Z,18.70
2023-08-08T17:31:59.513Z,18.70
2023-08-08T17:34:28.415Z,18.70
2023-08-08T17:36:57.208Z,18.70
2023-08-08T17:39:27.281Z,18.70
2023-08-08T17:41:55.875Z,18.80
2023-08-08T17:44:24.553Z,18.70
2023-08-08T17:46:54.417Z,18.70
2023-08-08T17:49:24.578Z,18.70
2023-08-08T17:51:53.779Z,18.80
2023-08-08T17:54:22.397Z,18.70
2023-08-08T17:56:52.312Z,18.70
2023-08-08T17:59:20.850Z,18.70
2023-08-08T18:01:49.480Z,18.60
2023-08-08T18:04:18.210Z,18.60
2023-08-08T18:06:46.732Z,18.60
2023-08-08T18:09:15.341Z,18.50
2023-08-08T18:11:43.888Z,18.50
2023-08-08T18:14:13.875Z,18.50
2023-08-08T18:16:42.620Z,18.50
2023-08-08T18:19:11.240Z,18.50
2023-08-08T18:21:39.831Z,18.50
2023-08-08T18:24:09.320Z,18.50
2023-08-08T18:26:37.947Z,18.50
2023-08-08T18:29:06.739Z,18.40
2023-08-08T18:31:36.671Z,18.40
2023-08-08T18:34:05.933Z,18.50
2023-08-08T18:36:34.736Z,18.40
2023-08-08T18:39:04.544Z,18.30
2023-08-08T18:41:33.078Z,18.30
2023-08-08T18:44:01.970Z,18.20
2023-08-08T18:46:30.563Z,18.20
2023-08-08T18:49:00.681Z,18.20
2023-08-08T18:51:29.268Z,18.10
2023-08-08T18:53:57.914Z,18.00
2023-08-08T18:56:26.525Z,18.00
2023-08-08T18:58:55.136Z,18.00
2023-08-08T19:01:23.724Z,17.90
2023-08-08T19:03:52.508Z,17.90
2023-08-08T19:06:22.508Z,17.90
2023-08-08T19:08:51.313Z,17.90
2023-08-08T19:11:19.952Z,17.90
2023-08-08T19:13:48.603Z,17.90
2023-08-08T19:16:17.346Z,17.90
2023-08-08T19:18:45.929Z,17.90
2023-08-08T19:21:14.523Z,17.90
2023-08-08T19:23:44.520Z,17.90
2023-08-08T19:26:13.624Z,17.90
2023-08-08T19:28:42.291Z,17.90
2023-08-08T19:31:10.848Z,17.90
2023-08-08T19:33:39.841Z,17.90
2023-08-08T19:36:09.989Z,17.80
2023-08-08T19:38:38.595Z,17.80
2023-08-08T19:41:09.170Z,17.80
2023-08-08T19:43:37.855Z,17.80
2023-08-08T19:46:09.428Z,17.80
2023-08-08T19:48:38.205Z,17.70
2023-08-08T19:51:06.823Z,17.70
2023-08-08T19:53:35.383Z,17.70
2023-08-08T19:56:04.024Z,17.70
2023-08-08T19:58:33.957Z,17.70
2023-08-08T20:01:03.010Z,17.60
2023-08-08T20:03:31.829Z,17.50
2023-08-08T20:06:01.807Z,17.50
2023-08-08T20:08:30.443Z,17.50
2023-08-08T20:10:58.983Z,17.40
2023-08-08T20:13:27.878Z,17.40
2023-08-08T20:15:57.846Z,17.30
2023-08-08T20:18:26.575Z,17.20
2023-08-08T20:20:55.186Z,17.10
2023-08-08T20:23:23.711Z,17.10
2023-08-08T20:25:52.251Z,17.00
2023-08-08T20:28:20.814Z,16.90
2023-08-08T20:30:49.340Z,16.90
2023-08-08T20:33:19.293Z,16.90
2023-08-08T20:35:47.896Z,16.90
2023-08-08T20:38:16.913Z,16.80
2023-08-08T20:40:45.443Z,16.70
2023-08-08T20:43:13.950Z,16.70
2023-08-08T20:45:43.597Z,16.70
2023-08-08T20:48:12.177Z,16.70
2023-08-08T20:50:42.137Z,16.60
2023-08-08T20:53:11.565Z,16.60
2023-08-08T20:55:40.210Z,16.60
2023-08-08T20:58:08.789Z,16.60
2023-08-08T21:00:37.434Z,16.60
2023-08-08T21:03:06.061Z,16.50
2023-08-08T21:05:34.891Z,16.50
2023-08-08T21:08:05.186Z,16.50
2023-08-08T21:10:33.838Z,16.50
2023-08-08T21:13:02.379Z,16.40
2023-08-08T21:15:30.901Z,16.40
2023-08-08T21:18:00.123Z,16.40
2023-08-08T21:20:28.796Z,16.40
2023-08-08T21:22:57.338Z,16.30
2023-08-08T21:25:27.428Z,16.30
2023-08-08T21:27:56.028Z,16.30
2023-08-08T21:30:24.615Z,16.30
2023-08-08T21:32:53.171Z,16.20
2023-08-08T21:35:21.783Z,16.20
2023-08-08T21:37:50.314Z,16.10
2023-08-08T21:40:18.897Z,16.10
2023-08-08T21:42:48.753Z,16.10
2023-08-08T21:45:17.350Z,16.00
2023-08-08T21:47:45.906Z,16.00
2023-08-08T21:50:14.484Z,16.00
2023-08-08T21:52:43.008Z,15.90
2023-08-08T21:55:11.775Z,15.90
2023-08-08T21:57:40.426Z,15.90
2023-08-08T22:00:16.425Z,15.90
2023-08-08T22:02:45.121Z,15.80
2023-08-08T22:05:13.981Z,15.80
2023-08-08T22:07:42.571Z,15.80
2023-08-08T22:10:11.857Z,15.90
2023-08-08T22:12:40.450Z,15.80
2023-08-08T22:15:12.286Z,15.80
2023-08-08T22:17:45.321Z,15.80
2023-08-08T22:20:19.145Z,15.70
2023-08-08T22:22:48.016Z,15.70
2023-08-08T22:25:18.381Z,15.70
2023-08-08T22:27:47.289Z,15.70
2023-08-08T22:30:17.227Z,15.70
2023-08-08T22:32:45.880Z,15.70
2023-08-08T22:35:14.513Z,15.70
2023-08-08T22:37:43.419Z,15.70
2023-08-08T22:40:12.954Z,15.70
2023-08-08T22:42:42.390Z,15.70
2023-08-08T22:45:12.929Z,15.60
2023-08-08T22:47:43.776Z,15.60
2023-08-08T22:50:12.481Z,15.70
2023-08-08T22:52:41.018Z,15.70
2023-08-08T22:55:09.997Z,15.60
2023-08-08T22:57:38.602Z,15.60
2023-08-08T23:00:08.651Z,15.60
2023-08-08T23:02:37.252Z,15.60
2023-08-08T23:05:08.465Z,15.60
2023-08-08T23:07:37.281Z,15.60
2023-08-08T23:10:06.808Z,15.60
2023-08-08T23:12:35.347Z,15.60
2023-08-08T23:15:04.039Z,15.60
2023-08-08T23:17:32.598Z,15.50
2023-08-08T23:20:01.181Z,15.50
2023-08-08T23:22:31.198Z,15.50
2023-08-08T23:24:59.744Z,15.50
2023-08-08T23:27:31.067Z,15.50
2023-08-08T23:29:59.693Z,15.50
2023-08-08T23:32:28.243Z,15.50
2023-08-08T23:34:56.819Z,15.50
2023-08-08T23:37:25.645Z,15.50
2023-08-08T23:39:55.641Z,15.50
2023-08-08T23:42:24.162Z,15.50
2023-08-08T23:44:52.672Z,15.50
2023-08-08T23:47:21.216Z,15.50
2023-08-08T23:49:49.770Z,15.50
2023-08-08T23:52:18.323Z,15.50
2023-08-08T23:54:47.008Z,15.50
2023-08-08T23:57:16.869Z,15.50
2023-08-08T23:59:45.371Z,15.50
